ヨハネスブルグ の空港の天気 - METARとTAF

ヨハネスブルグ/O.R.タンボ国際空港 ( FAOR / JNB ) - 南アフリカ ヨハネスブルグ
飛行場実況気象(Metar)
観測時間04/25 16:00 SAST (04/25 14:00 UTC)
風向・風速北北東 5m/s
視程10km以上
天気現象
なし
気温24℃
湿度27%
気圧1025hPa
METARFAOR 251400Z 02009KT 350V050 CAVOK 24/04 Q1025 NOSIG
過去の天気等 Google飛行場航空写真 Wunderground天気予報

過去48時間のMETAR

飛行場予報(TAF)
発表時間: 4/25 12:00 SAST (4/25 10:00 UTC)
予報対象時間: 25日14時 SAST ~ 26日20時 SAST
風向・風速北 4m/s
視程10km以上
なし
26日9時 SAST ~ 26日11時 SAST に徐々に
風向・風速西北西 5m/s
26日15時 SAST ~ 26日17時 SAST に徐々に
風向・風速北 3m/s
TAF FAOR 251000Z 2512/2618 35007KT CAVOK
BECMG 2607/2609 29010KT
BECMG 2613/2615 35005KT TX26/2512Z TN13/2604Z